createdAt,value
2018-12-12T00:01:04.913Z,11.13
2018-12-12T00:06:08.991Z,10.50
2018-12-12T00:11:11.341Z,10.30
2018-12-12T00:16:14.009Z,9.70
2018-12-12T00:21:16.069Z,9.63
2018-12-12T00:26:19.255Z,9.43
2018-12-12T00:31:21.450Z,9.57
2018-12-12T00:36:23.694Z,10.13
2018-12-12T00:41:25.753Z,9.43
2018-12-12T00:46:27.805Z,9.57
2018-12-12T00:51:30.326Z,9.97
2018-12-12T00:56:32.403Z,9.70
2018-12-12T01:01:34.562Z,9.33
2018-12-12T01:06:36.605Z,8.97
2018-12-12T01:11:46.005Z,8.80
2018-12-12T01:16:48.057Z,8.50
2018-12-12T01:21:50.637Z,8.60
2018-12-12T01:26:52.931Z,8.53
2018-12-12T01:31:55.110Z,8.90
2018-12-12T01:36:57.366Z,8.77
2018-12-12T01:42:00.381Z,7.33
2018-12-12T01:47:02.660Z,6.83
2018-12-12T01:52:04.845Z,6.53
2018-12-12T01:57:06.910Z,6.67
2018-12-12T02:02:09.069Z,6.63
2018-12-12T02:07:11.438Z,6.00
2018-12-12T02:12:13.754Z,5.87
2018-12-12T02:17:15.917Z,5.97
2018-12-12T02:22:18.145Z,6.23
2018-12-12T02:27:21.145Z,6.90
2018-12-12T02:32:23.293Z,7.00
2018-12-12T02:37:25.848Z,6.40
2018-12-12T02:42:28.157Z,5.27
2018-12-12T02:47:30.403Z,6.43
2018-12-12T02:52:32.588Z,6.00
2018-12-12T02:57:41.602Z,6.30
2018-12-12T03:02:43.911Z,6.73
2018-12-12T03:07:46.168Z,6.40
2018-12-12T03:12:48.253Z,6.83
2018-12-12T03:17:50.333Z,6.43
2018-12-12T03:22:52.406Z,5.93
2018-12-12T03:27:54.463Z,6.10
2018-12-12T03:32:57.003Z,5.80
2018-12-12T03:37:59.061Z,5.97
2018-12-12T03:43:01.247Z,6.33
2018-12-12T03:48:03.704Z,6.50
2018-12-12T03:53:06.008Z,6.73
2018-12-12T03:58:08.050Z,6.53
2018-12-12T04:03:10.102Z,6.60
2018-12-12T04:08:12.313Z,7.20
2018-12-12T04:13:14.593Z,7.30
2018-12-12T04:18:16.937Z,7.43
2018-12-12T04:23:22.047Z,7.60
2018-12-12T04:28:24.126Z,7.33
2018-12-12T04:33:26.317Z,8.00
2018-12-12T04:38:28.652Z,8.47
2018-12-12T04:43:30.702Z,9.43
2018-12-12T04:48:37.813Z,7.83
2018-12-12T04:53:39.879Z,7.63
2018-12-12T04:58:42.049Z,7.63
2018-12-12T05:03:44.331Z,8.23
2018-12-12T05:08:46.454Z,9.63
2018-12-12T05:13:49.644Z,9.57
2018-12-12T05:18:51.712Z,8.63
2018-12-12T05:23:53.975Z,9.17
2018-12-12T05:28:56.267Z,8.87
2018-12-12T05:33:58.433Z,8.43
2018-12-12T05:39:07.405Z,8.47
2018-12-12T05:44:10.682Z,9.23
2018-12-12T05:49:12.874Z,9.50
2018-12-12T05:54:15.069Z,9.83
2018-12-12T05:59:17.257Z,10.87
2018-12-12T06:04:19.360Z,10.10
2018-12-12T06:09:21.737Z,9.13
2018-12-12T06:14:23.845Z,9.73
2018-12-12T06:19:26.006Z,9.67
2018-12-12T06:24:29.174Z,11.13
2018-12-12T06:29:31.362Z,10.70
2018-12-12T06:34:33.514Z,10.70
2018-12-12T06:39:35.755Z,9.83
2018-12-12T06:44:37.814Z,10.37
2018-12-12T06:49:39.981Z,10.07
2018-12-12T06:54:42.197Z,8.27
2018-12-12T06:59:44.293Z,10.17
2018-12-12T07:04:46.581Z,10.07
2018-12-12T07:09:49.382Z,9.90
2018-12-12T07:14:51.466Z,9.00
2018-12-12T07:19:53.673Z,9.87
2018-12-12T07:24:55.849Z,9.93
2018-12-12T07:29:57.889Z,9.00
2018-12-12T07:34:59.937Z,9.43
2018-12-12T07:40:02.210Z,10.07
2018-12-12T07:45:04.480Z,9.00
2018-12-12T07:50:08.869Z,9.30
2018-12-12T07:55:27.881Z,9.80
2018-12-12T08:00:30.901Z,15.27
2018-12-12T08:05:32.944Z,11.97
2018-12-12T08:10:35.145Z,10.47
2018-12-12T08:15:37.201Z,10.67
2018-12-12T08:20:39.237Z,9.07
2018-12-12T08:25:42.430Z,8.57
2018-12-12T08:30:44.593Z,8.67
2018-12-12T08:35:46.854Z,9.50
2018-12-12T08:40:48.930Z,8.27
2018-12-12T08:45:51.277Z,8.10
2018-12-12T08:50:53.931Z,9.10
2018-12-12T08:55:56.370Z,9.20
2018-12-12T09:00:58.429Z,8.53
2018-12-12T09:06:00.521Z,9.20
2018-12-12T09:11:02.857Z,8.90
2018-12-12T09:16:05.153Z,8.70
2018-12-12T09:21:07.309Z,8.17
2018-12-12T09:26:09.407Z,7.17
2018-12-12T09:31:11.732Z,8.37
2018-12-12T09:36:15.789Z,8.07
2018-12-12T09:41:17.957Z,8.00
2018-12-12T09:46:20.134Z,7.03
2018-12-12T09:51:22.289Z,8.63
2018-12-12T09:56:26.530Z,8.27
2018-12-12T10:01:28.710Z,9.57
2018-12-12T10:06:30.880Z,9.10
2018-12-12T10:11:33.050Z,9.23
2018-12-12T10:16:35.266Z,9.10
2018-12-12T10:21:37.422Z,9.27
2018-12-12T10:26:39.741Z,9.97
2018-12-12T10:31:42.026Z,10.40
2018-12-12T10:36:44.114Z,9.50
2018-12-12T10:41:46.593Z,10.47
2018-12-12T10:46:48.653Z,11.17
2018-12-12T10:51:50.939Z,11.73
2018-12-12T10:56:53.032Z,12.83
2018-12-12T11:02:00.981Z,11.83
2018-12-12T11:07:03.314Z,12.17
2018-12-12T11:12:05.633Z,10.80
2018-12-12T11:17:07.785Z,11.37
2018-12-12T11:22:09.881Z,10.70
2018-12-12T11:27:11.969Z,11.10
2018-12-12T11:32:14.017Z,10.83
2018-12-12T11:37:16.289Z,11.60
2018-12-12T11:42:18.614Z,11.50
2018-12-12T11:47:20.665Z,10.80
2018-12-12T11:52:22.717Z,10.23
2018-12-12T11:57:25.224Z,11.07
2018-12-12T12:02:27.453Z,11.17
2018-12-12T12:07:29.884Z,10.67
2018-12-12T12:12:32.013Z,10.00
2018-12-12T12:17:34.163Z,11.03
2018-12-12T12:22:36.222Z,10.17
2018-12-12T12:27:38.302Z,10.77
2018-12-12T12:32:47.457Z,9.60
2018-12-12T12:37:49.617Z,9.67
2018-12-12T12:42:51.785Z,9.57
2018-12-12T12:47:53.977Z,9.77
2018-12-12T12:52:56.026Z,9.87
2018-12-12T12:57:58.073Z,8.33
2018-12-12T13:03:00.271Z,10.90
2018-12-12T13:08:03.153Z,10.27
2018-12-12T13:13:05.638Z,9.67
2018-12-12T13:18:08.341Z,9.23
2018-12-12T13:23:10.501Z,10.63
2018-12-12T13:28:12.885Z,9.40
2018-12-12T13:33:15.181Z,9.97
2018-12-12T13:38:17.229Z,9.70
2018-12-12T13:43:26.213Z,9.30
2018-12-12T13:48:28.286Z,9.50
2018-12-12T13:53:30.558Z,8.37
2018-12-12T13:58:32.654Z,9.00
2018-12-12T14:03:34.740Z,8.87
2018-12-12T14:08:36.973Z,8.90
2018-12-12T14:13:39.211Z,9.33
2018-12-12T14:18:41.270Z,8.77
2018-12-12T14:23:43.385Z,8.60
2018-12-12T14:28:45.424Z,9.50
2018-12-12T14:33:55.701Z,9.20
2018-12-12T14:38:57.784Z,9.97
2018-12-12T14:43:59.826Z,9.70
2018-12-12T14:49:08.969Z,8.70
2018-12-12T14:54:11.141Z,10.93
2018-12-12T14:59:13.968Z,8.43
2018-12-12T15:04:16.199Z,9.80
2018-12-12T15:09:18.281Z,27.03
2018-12-12T15:14:20.397Z,25.70
2018-12-12T15:19:22.450Z,10.23
2018-12-12T15:24:24.553Z,9.93
2018-12-12T15:29:27.542Z,9.80
2018-12-12T15:34:29.711Z,11.10
2018-12-12T15:39:31.954Z,10.67
2018-12-12T15:44:33.997Z,10.37
2018-12-12T15:49:36.095Z,10.23
2018-12-12T15:54:38.367Z,9.90
2018-12-12T15:59:40.478Z,11.07
2018-12-12T16:04:48.815Z,10.57
2018-12-12T16:09:46.738Z,9.77
2018-12-12T16:14:48.833Z,9.67
2018-12-12T16:19:50.882Z,10.17
2018-12-12T16:24:52.937Z,10.00
2018-12-12T16:29:55.034Z,9.50
2018-12-12T16:34:57.122Z,9.30
2018-12-12T16:39:59.297Z,10.10
2018-12-12T16:45:01.460Z,10.13
2018-12-12T16:50:10.570Z,11.17
2018-12-12T16:55:12.888Z,14.70
2018-12-12T17:00:16.306Z,12.27
2018-12-12T17:05:18.595Z,11.10
2018-12-12T17:10:20.903Z,10.70
2018-12-12T17:15:23.078Z,11.43
2018-12-12T17:20:25.345Z,12.13
2018-12-12T17:25:27.421Z,12.83
2018-12-12T17:30:30.102Z,12.50
2018-12-12T17:35:32.193Z,12.13
2018-12-12T17:40:34.261Z,12.10
2018-12-12T17:45:36.641Z,11.60
2018-12-12T17:50:38.841Z,10.50
2018-12-12T17:55:40.886Z,9.77
2018-12-12T18:00:43.061Z,10.87
2018-12-12T18:05:47.280Z,10.27
2018-12-12T18:10:49.459Z,9.20
2018-12-12T18:15:51.503Z,10.13
2018-12-12T18:20:59.406Z,9.30
2018-12-12T18:26:03.678Z,11.73
2018-12-12T18:31:16.165Z,10.90
2018-12-12T18:36:41.287Z,17.30
2018-12-12T18:41:43.809Z,15.10
2018-12-12T18:47:06.830Z,14.70
2018-12-12T18:52:08.888Z,13.63
2018-12-12T18:57:11.069Z,15.87
2018-12-12T19:02:13.428Z,16.13
2018-12-12T19:07:16.786Z,14.60
2018-12-12T19:12:20.293Z,15.70
2018-12-12T19:17:22.449Z,14.80
2018-12-12T19:22:24.617Z,13.37
2018-12-12T19:27:27.206Z,16.87
2018-12-12T19:32:29.261Z,18.90
2018-12-12T19:37:32.236Z,18.50
2018-12-12T19:42:34.658Z,17.93
2018-12-12T19:47:36.814Z,20.03
2018-12-12T19:52:38.968Z,21.13
2018-12-12T19:57:41.249Z,22.87
2018-12-12T20:02:43.406Z,24.23
2018-12-12T20:07:45.709Z,24.43
2018-12-12T20:12:47.905Z,23.50
2018-12-12T20:17:50.064Z,24.10
2018-12-12T20:22:52.485Z,25.07
2018-12-12T20:27:54.628Z,23.57
2018-12-12T20:32:56.673Z,25.97
2018-12-12T20:37:58.934Z,24.57
2018-12-12T20:43:01.122Z,24.37
2018-12-12T20:48:04.357Z,27.27
2018-12-12T20:53:06.560Z,26.03
2018-12-12T20:58:08.625Z,26.10
2018-12-12T21:03:10.669Z,24.47
2018-12-12T21:08:13.189Z,28.33
2018-12-12T21:13:15.250Z,29.53
2018-12-12T21:18:18.600Z,28.20
2018-12-12T21:23:21.853Z,24.43
2018-12-12T21:28:23.945Z,23.87
2018-12-12T21:33:26.105Z,24.60
2018-12-12T21:38:28.237Z,23.03
2018-12-12T21:43:30.277Z,23.70
2018-12-12T21:48:32.326Z,22.40
2018-12-12T21:53:34.384Z,19.33
2018-12-12T21:58:36.548Z,19.57
2018-12-12T22:03:38.697Z,20.50
2018-12-12T22:08:41.037Z,21.70
2018-12-12T22:13:43.225Z,25.10
2018-12-12T22:18:45.382Z,25.37
2018-12-12T22:23:47.409Z,24.50
2018-12-12T22:28:50.016Z,23.00
2018-12-12T22:33:52.174Z,24.23
2018-12-12T22:38:54.369Z,25.00
2018-12-12T22:43:56.554Z,24.63
2018-12-12T22:48:58.620Z,26.30
2018-12-12T22:54:00.666Z,23.73
2018-12-12T22:59:02.909Z,22.90
2018-12-12T23:04:05.195Z,25.73
2018-12-12T23:09:08.181Z,27.97
2018-12-12T23:14:10.282Z,28.07
2018-12-12T23:19:12.466Z,26.57
2018-12-12T23:24:14.525Z,28.00
2018-12-12T23:29:16.608Z,29.03
2018-12-12T23:34:18.661Z,27.53
2018-12-12T23:39:20.721Z,27.93
2018-12-12T23:44:22.961Z,29.77
2018-12-12T23:49:25.217Z,28.57
2018-12-12T23:54:27.253Z,27.63
2018-12-12T23:59:29.453Z,27.83
